sensor_id;sensor_type;location;lat;lon;timestamp;temperature;humidity
11963;DHT22;62678;52.130;5.584;2023-07-24T00:00:18;19.20;99.90
11963;DHT22;62678;52.130;5.584;2023-07-24T00:02:45;19.20;99.90
11963;DHT22;62678;52.130;5.584;2023-07-24T00:05:12;19.10;99.90
11963;DHT22;62678;52.130;5.584;2023-07-24T00:07:39;19.10;99.90
11963;DHT22;62678;52.130;5.584;2023-07-24T00:10:08;19.00;99.90
11963;DHT22;62678;52.130;5.584;2023-07-24T00:12:35;19.00;99.90
11963;DHT22;62678;52.130;5.584;2023-07-24T00:15:06;19.00;99.90
11963;DHT22;62678;52.130;5.584;2023-07-24T00:17:33;18.90;99.90
11963;DHT22;62678;52.130;5.584;2023-07-24T00:20:00;18.90;99.90
11963;DHT22;62678;52.130;5.584;2023-07-24T00:22:27;18.80;99.90
11963;DHT22;62678;52.130;5.584;2023-07-24T00:24:54;18.80;99.90
11963;DHT22;62678;52.130;5.584;2023-07-24T00:27:22;18.90;99.90
11963;DHT22;62678;52.130;5.584;2023-07-24T00:29:49;18.90;99.90
11963;DHT22;62678;52.130;5.584;2023-07-24T00:32:16;18.80;99.90
11963;DHT22;62678;52.130;5.584;2023-07-24T00:34:43;18.80;99.90
11963;DHT22;62678;52.130;5.584;2023-07-24T00:37:10;18.80;99.90
11963;DHT22;62678;52.130;5.584;2023-07-24T00:39:38;18.80;99.90
11963;DHT22;62678;52.130;5.584;2023-07-24T00:42:05;18.80;99.90
11963;DHT22;62678;52.130;5.584;2023-07-24T00:44:34;18.80;99.90
11963;DHT22;62678;52.130;5.584;2023-07-24T00:47:02;18.80;99.90
11963;DHT22;62678;52.130;5.584;2023-07-24T00:49:29;18.80;99.90
11963;DHT22;62678;52.130;5.584;2023-07-24T00:51:56;18.80;99.90
11963;DHT22;62678;52.130;5.584;2023-07-24T00:54:24;18.70;99.90
11963;DHT22;62678;52.130;5.584;2023-07-24T00:56:51;18.80;99.90
11963;DHT22;62678;52.130;5.584;2023-07-24T00:59:18;18.80;99.90
11963;DHT22;62678;52.130;5.584;2023-07-24T01:01:47;18.80;99.90
11963;DHT22;62678;52.130;5.584;2023-07-24T01:04:15;18.70;99.90
11963;DHT22;62678;52.130;5.584;2023-07-24T01:06:42;18.70;99.90
11963;DHT22;62678;52.130;5.584;2023-07-24T01:09:09;18.70;99.90
11963;DHT22;62678;52.130;5.584;2023-07-24T01:11:40;18.70;99.90
11963;DHT22;62678;52.130;5.584;2023-07-24T01:14:15;18.70;99.90
11963;DHT22;62678;52.130;5.584;2023-07-24T01:16:47;18.70;99.90
11963;DHT22;62678;52.130;5.584;2023-07-24T01:19:20;18.70;99.90
11963;DHT22;62678;52.130;5.584;2023-07-24T01:22:01;18.60;99.90
11963;DHT22;62678;52.130;5.584;2023-07-24T01:24:37;18.70;99.90
11963;DHT22;62678;52.130;5.584;2023-07-24T01:27:20;18.70;99.90
11963;DHT22;62678;52.130;5.584;2023-07-24T01:29:47;18.70;99.90
11963;DHT22;62678;52.130;5.584;2023-07-24T01:32:14;18.60;99.90
11963;DHT22;62678;52.130;5.584;2023-07-24T01:34:41;18.60;99.90
11963;DHT22;62678;52.130;5.584;2023-07-24T01:37:09;18.60;99.90
11963;DHT22;62678;52.130;5.584;2023-07-24T01:39:38;18.60;99.90
11963;DHT22;62678;52.130;5.584;2023-07-24T01:42:06;18.60;99.90
11963;DHT22;62678;52.130;5.584;2023-07-24T01:44:35;18.60;99.90
11963;DHT22;62678;52.130;5.584;2023-07-24T01:47:02;18.70;99.90
11963;DHT22;62678;52.130;5.584;2023-07-24T01:49:29;18.70;99.90
11963;DHT22;62678;52.130;5.584;2023-07-24T01:51:56;18.70;99.90
11963;DHT22;62678;52.130;5.584;2023-07-24T01:54:23;18.60;99.90
11963;DHT22;62678;52.130;5.584;2023-07-24T01:56:50;18.60;99.90
11963;DHT22;62678;52.130;5.584;2023-07-24T01:59:17;18.60;99.90
11963;DHT22;62678;52.130;5.584;2023-07-24T02:01:45;18.70;99.90
11963;DHT22;62678;52.130;5.584;2023-07-24T02:04:14;18.70;99.90
11963;DHT22;62678;52.130;5.584;2023-07-24T02:06:41;18.70;99.90
11963;DHT22;62678;52.130;5.584;2023-07-24T02:09:08;18.70;99.90
11963;DHT22;62678;52.130;5.584;2023-07-24T02:11:35;18.70;99.90
11963;DHT22;62678;52.130;5.584;2023-07-24T02:14:02;18.70;99.90
11963;DHT22;62678;52.130;5.584;2023-07-24T02:16:29;18.60;99.90
11963;DHT22;62678;52.130;5.584;2023-07-24T02:18:58;18.70;99.90
11963;DHT22;62678;52.130;5.584;2023-07-24T02:21:25;18.60;99.90
11963;DHT22;62678;52.130;5.584;2023-07-24T02:23:52;18.70;99.90
11963;DHT22;62678;52.130;5.584;2023-07-24T02:26:19;18.70;99.90
11963;DHT22;62678;52.130;5.584;2023-07-24T02:28:46;18.60;99.90
11963;DHT22;62678;52.130;5.584;2023-07-24T02:31:13;18.60;99.90
11963;DHT22;62678;52.130;5.584;2023-07-24T02:33:40;18.50;99.90
11963;DHT22;62678;52.130;5.584;2023-07-24T02:36:08;18.60;99.90
11963;DHT22;62678;52.130;5.584;2023-07-24T02:38:35;18.60;99.90
11963;DHT22;62678;52.130;5.584;2023-07-24T02:41:02;18.60;99.90
11963;DHT22;62678;52.130;5.584;2023-07-24T02:43:29;18.60;99.90
11963;DHT22;62678;52.130;5.584;2023-07-24T02:46:00;18.60;99.90
11963;DHT22;62678;52.130;5.584;2023-07-24T02:48:27;18.60;99.90
11963;DHT22;62678;52.130;5.584;2023-07-24T02:50:54;18.60;99.90
11963;DHT22;62678;52.130;5.584;2023-07-24T02:53:23;18.60;99.90
11963;DHT22;62678;52.130;5.584;2023-07-24T02:55:50;18.60;99.90
11963;DHT22;62678;52.130;5.584;2023-07-24T02:58:17;18.60;99.90
11963;DHT22;62678;52.130;5.584;2023-07-24T03:00:43;18.60;99.90
11963;DHT22;62678;52.130;5.584;2023-07-24T03:03:10;18.60;99.90
11963;DHT22;62678;52.130;5.584;2023-07-24T03:05:37;18.70;99.90
11963;DHT22;62678;52.130;5.584;2023-07-24T03:08:04;18.80;99.90
11963;DHT22;62678;52.130;5.584;2023-07-24T03:10:33;18.70;99.90
11963;DHT22;62678;52.130;5.584;2023-07-24T03:13:00;18.80;99.90
11963;DHT22;62678;52.130;5.584;2023-07-24T03:15:27;18.70;99.90
11963;DHT22;62678;52.130;5.584;2023-07-24T03:17:54;18.60;99.90
11963;DHT22;62678;52.130;5.584;2023-07-24T03:20:21;18.60;99.90
11963;DHT22;62678;52.130;5.584;2023-07-24T03:22:48;18.60;99.90
11963;DHT22;62678;52.130;5.584;2023-07-24T03:25:15;18.60;99.90
11963;DHT22;62678;52.130;5.584;2023-07-24T03:27:43;18.60;99.90
11963;DHT22;62678;52.130;5.584;2023-07-24T03:30:11;18.60;99.90
11963;DHT22;62678;52.130;5.584;2023-07-24T03:32:38;18.60;99.90
11963;DHT22;62678;52.130;5.584;2023-07-24T03:35:06;18.60;99.90
11963;DHT22;62678;52.130;5.584;2023-07-24T03:37:34;18.60;99.90
11963;DHT22;62678;52.130;5.584;2023-07-24T03:40:01;18.50;99.90
11963;DHT22;62678;52.130;5.584;2023-07-24T03:42:29;18.50;99.90
11963;DHT22;62678;52.130;5.584;2023-07-24T03:44:58;18.50;99.90
11963;DHT22;62678;52.130;5.584;2023-07-24T03:47:25;18.60;99.90
11963;DHT22;62678;52.130;5.584;2023-07-24T03:49:52;18.60;99.90
11963;DHT22;62678;52.130;5.584;2023-07-24T03:52:19;18.60;99.90
11963;DHT22;62678;52.130;5.584;2023-07-24T03:54:46;18.60;99.90
11963;DHT22;62678;52.130;5.584;2023-07-24T03:57:13;18.60;99.90
11963;DHT22;62678;52.130;5.584;2023-07-24T03:59:40;18.50;99.90
11963;DHT22;62678;52.130;5.584;2023-07-24T04:02:08;18.50;99.90
11963;DHT22;62678;52.130;5.584;2023-07-24T04:04:35;18.50;99.90
11963;DHT22;62678;52.130;5.584;2023-07-24T04:07:02;18.40;99.90
11963;DHT22;62678;52.130;5.584;2023-07-24T04:09:30;18.40;99.90
11963;DHT22;62678;52.130;5.584;2023-07-24T04:11:57;18.40;99.90
11963;DHT22;62678;52.130;5.584;2023-07-24T04:14:24;18.40;99.90
11963;DHT22;62678;52.130;5.584;2023-07-24T04:16:50;18.40;99.90
11963;DHT22;62678;52.130;5.584;2023-07-24T04:19:19;18.40;99.90
11963;DHT22;62678;52.130;5.584;2023-07-24T04:21:46;18.40;99.90
11963;DHT22;62678;52.130;5.584;2023-07-24T04:24:13;18.40;99.90
11963;DHT22;62678;52.130;5.584;2023-07-24T04:26:40;18.40;99.90
11963;DHT22;62678;52.130;5.584;2023-07-24T04:29:08;18.40;99.90
11963;DHT22;62678;52.130;5.584;2023-07-24T04:31:34;18.40;99.90
11963;DHT22;62678;52.130;5.584;2023-07-24T04:34:01;18.40;99.90
11963;DHT22;62678;52.130;5.584;2023-07-24T04:36:29;18.30;99.90
11963;DHT22;62678;52.130;5.584;2023-07-24T04:38:56;18.40;99.90
11963;DHT22;62678;52.130;5.584;2023-07-24T04:41:23;18.40;99.90
11963;DHT22;62678;52.130;5.584;2023-07-24T04:43:50;18.30;99.90
11963;DHT22;62678;52.130;5.584;2023-07-24T04:46:17;18.40;99.90
11963;DHT22;62678;52.130;5.584;2023-07-24T04:48:44;18.40;99.90
11963;DHT22;62678;52.130;5.584;2023-07-24T04:51:11;18.40;99.90
11963;DHT22;62678;52.130;5.584;2023-07-24T04:53:39;18.30;99.90
11963;DHT22;62678;52.130;5.584;2023-07-24T04:56:07;18.40;99.90
11963;DHT22;62678;52.130;5.584;2023-07-24T04:58:34;18.30;99.90
11963;DHT22;62678;52.130;5.584;2023-07-24T05:01:05;18.30;99.90
11963;DHT22;62678;52.130;5.584;2023-07-24T05:03:32;18.40;99.90
11963;DHT22;62678;52.130;5.584;2023-07-24T05:05:59;18.30;99.90
11963;DHT22;62678;52.130;5.584;2023-07-24T05:08:26;18.20;99.90
11963;DHT22;62678;52.130;5.584;2023-07-24T05:10:57;18.30;99.90
11963;DHT22;62678;52.130;5.584;2023-07-24T05:13:25;18.20;99.90
11963;DHT22;62678;52.130;5.584;2023-07-24T05:15:52;18.20;99.90
11963;DHT22;62678;52.130;5.584;2023-07-24T05:18:19;18.10;99.90
11963;DHT22;62678;52.130;5.584;2023-07-24T05:20:47;18.10;99.90
11963;DHT22;62678;52.130;5.584;2023-07-24T05:23:17;18.20;99.90
11963;DHT22;62678;52.130;5.584;2023-07-24T05:25:44;18.10;99.90
11963;DHT22;62678;52.130;5.584;2023-07-24T05:28:12;18.20;99.90
11963;DHT22;62678;52.130;5.584;2023-07-24T05:30:39;18.40;99.90
11963;DHT22;62678;52.130;5.584;2023-07-24T05:33:06;18.40;99.90
11963;DHT22;62678;52.130;5.584;2023-07-24T05:35:33;18.60;99.90
11963;DHT22;62678;52.130;5.584;2023-07-24T05:38:00;18.50;99.90
11963;DHT22;62678;52.130;5.584;2023-07-24T05:40:28;18.60;99.90
11963;DHT22;62678;52.130;5.584;2023-07-24T05:42:55;18.60;99.90
11963;DHT22;62678;52.130;5.584;2023-07-24T05:45:23;18.70;99.90
11963;DHT22;62678;52.130;5.584;2023-07-24T05:47:50;18.70;99.90
11963;DHT22;62678;52.130;5.584;2023-07-24T05:50:17;18.70;99.90
11963;DHT22;62678;52.130;5.584;2023-07-24T05:52:45;18.70;99.90
11963;DHT22;62678;52.130;5.584;2023-07-24T05:55:12;18.80;99.90
11963;DHT22;62678;52.130;5.584;2023-07-24T05:57:39;18.70;99.90
11963;DHT22;62678;52.130;5.584;2023-07-24T06:00:07;18.70;99.90
11963;DHT22;62678;52.130;5.584;2023-07-24T06:02:35;18.70;99.90
11963;DHT22;62678;52.130;5.584;2023-07-24T06:05:03;18.70;99.90
11963;DHT22;62678;52.130;5.584;2023-07-24T06:07:30;18.60;99.90
11963;DHT22;62678;52.130;5.584;2023-07-24T06:09:57;18.50;99.90
11963;DHT22;62678;52.130;5.584;2023-07-24T06:12:24;18.60;99.90
11963;DHT22;62678;52.130;5.584;2023-07-24T06:14:51;18.60;99.90
11963;DHT22;62678;52.130;5.584;2023-07-24T06:17:19;18.70;99.90
11963;DHT22;62678;52.130;5.584;2023-07-24T06:19:47;18.70;99.90
11963;DHT22;62678;52.130;5.584;2023-07-24T06:22:14;18.70;99.90
11963;DHT22;62678;52.130;5.584;2023-07-24T06:24:42;18.80;99.90
11963;DHT22;62678;52.130;5.584;2023-07-24T06:27:09;18.80;99.90
11963;DHT22;62678;52.130;5.584;2023-07-24T06:29:36;18.80;99.90
11963;DHT22;62678;52.130;5.584;2023-07-24T06:32:04;18.90;99.90
11963;DHT22;62678;52.130;5.584;2023-07-24T06:34:31;18.90;99.90
11963;DHT22;62678;52.130;5.584;2023-07-24T06:37:00;19.00;99.90
11963;DHT22;62678;52.130;5.584;2023-07-24T06:39:27;19.10;99.90
11963;DHT22;62678;52.130;5.584;2023-07-24T06:41:55;19.30;99.90
11963;DHT22;62678;52.130;5.584;2023-07-24T06:44:22;19.30;99.90
11963;DHT22;62678;52.130;5.584;2023-07-24T06:46:49;19.10;99.90
11963;DHT22;62678;52.130;5.584;2023-07-24T06:49:16;19.10;99.90
11963;DHT22;62678;52.130;5.584;2023-07-24T06:51:43;19.30;99.90
11963;DHT22;62678;52.130;5.584;2023-07-24T06:54:11;19.40;99.90
11963;DHT22;62678;52.130;5.584;2023-07-24T06:56:38;19.50;99.90
11963;DHT22;62678;52.130;5.584;2023-07-24T06:59:05;19.60;99.90
11963;DHT22;62678;52.130;5.584;2023-07-24T07:01:33;19.50;99.90
11963;DHT22;62678;52.130;5.584;2023-07-24T07:04:00;19.50;99.90
11963;DHT22;62678;52.130;5.584;2023-07-24T07:06:27;19.50;99.90
11963;DHT22;62678;52.130;5.584;2023-07-24T07:08:54;19.70;99.90
11963;DHT22;62678;52.130;5.584;2023-07-24T07:11:23;19.60;99.90
11963;DHT22;62678;52.130;5.584;2023-07-24T07:13:50;19.80;99.90
11963;DHT22;62678;52.130;5.584;2023-07-24T07:16:17;19.70;99.90
11963;DHT22;62678;52.130;5.584;2023-07-24T07:18:44;19.60;99.90
11963;DHT22;62678;52.130;5.584;2023-07-24T07:21:11;19.60;99.90
11963;DHT22;62678;52.130;5.584;2023-07-24T07:23:39;19.70;99.90
11963;DHT22;62678;52.130;5.584;2023-07-24T07:26:06;19.60;99.90
11963;DHT22;62678;52.130;5.584;2023-07-24T07:28:34;19.90;99.90
11963;DHT22;62678;52.130;5.584;2023-07-24T07:31:01;19.90;99.90
11963;DHT22;62678;52.130;5.584;2023-07-24T07:33:29;19.90;99.90
11963;DHT22;62678;52.130;5.584;2023-07-24T07:35:56;19.90;99.90
11963;DHT22;62678;52.130;5.584;2023-07-24T07:38:23;20.20;99.90
11963;DHT22;62678;52.130;5.584;2023-07-24T07:40:50;20.50;99.90
11963;DHT22;62678;52.130;5.584;2023-07-24T07:43:18;20.70;99.90
11963;DHT22;62678;52.130;5.584;2023-07-24T07:45:47;20.70;99.90
11963;DHT22;62678;52.130;5.584;2023-07-24T07:48:14;20.60;99.90
11963;DHT22;62678;52.130;5.584;2023-07-24T07:50:42;20.70;99.90
11963;DHT22;62678;52.130;5.584;2023-07-24T07:53:09;20.80;99.90
11963;DHT22;62678;52.130;5.584;2023-07-24T07:55:37;20.80;99.90
11963;DHT22;62678;52.130;5.584;2023-07-24T07:58:05;20.70;99.90
11963;DHT22;62678;52.130;5.584;2023-07-24T08:00:33;20.50;99.90
11963;DHT22;62678;52.130;5.584;2023-07-24T08:03:01;20.50;99.90
11963;DHT22;62678;52.130;5.584;2023-07-24T08:05:29;20.20;99.90
11963;DHT22;62678;52.130;5.584;2023-07-24T08:07:57;20.10;99.90
11963;DHT22;62678;52.130;5.584;2023-07-24T08:10:24;20.10;99.90
11963;DHT22;62678;52.130;5.584;2023-07-24T08:12:52;20.10;99.90
11963;DHT22;62678;52.130;5.584;2023-07-24T08:15:19;20.20;99.90
11963;DHT22;62678;52.130;5.584;2023-07-24T08:17:47;20.50;99.90
11963;DHT22;62678;52.130;5.584;2023-07-24T08:20:15;20.70;99.90
11963;DHT22;62678;52.130;5.584;2023-07-24T08:22:43;20.90;99.90
11963;DHT22;62678;52.130;5.584;2023-07-24T08:25:11;21.00;99.90
11963;DHT22;62678;52.130;5.584;2023-07-24T08:27:39;21.10;99.90
11963;DHT22;62678;52.130;5.584;2023-07-24T08:30:07;21.00;99.90
11963;DHT22;62678;52.130;5.584;2023-07-24T08:32:34;21.10;99.90
11963;DHT22;62678;52.130;5.584;2023-07-24T08:35:01;21.10;99.90
11963;DHT22;62678;52.130;5.584;2023-07-24T08:37:30;21.00;99.90
11963;DHT22;62678;52.130;5.584;2023-07-24T08:39:58;21.10;99.90
11963;DHT22;62678;52.130;5.584;2023-07-24T08:42:26;21.30;99.90
11963;DHT22;62678;52.130;5.584;2023-07-24T08:44:54;21.30;99.90
11963;DHT22;62678;52.130;5.584;2023-07-24T08:47:23;21.20;99.90
11963;DHT22;62678;52.130;5.584;2023-07-24T08:49:50;21.20;99.90
11963;DHT22;62678;52.130;5.584;2023-07-24T08:52:19;21.10;99.90
11963;DHT22;62678;52.130;5.584;2023-07-24T08:54:49;20.90;99.90
11963;DHT22;62678;52.130;5.584;2023-07-24T08:57:17;21.20;99.90
11963;DHT22;62678;52.130;5.584;2023-07-24T08:59:44;21.20;99.90
11963;DHT22;62678;52.130;5.584;2023-07-24T09:02:12;21.20;99.90
11963;DHT22;62678;52.130;5.584;2023-07-24T09:04:41;21.30;99.90
11963;DHT22;62678;52.130;5.584;2023-07-24T09:07:08;21.20;99.90
11963;DHT22;62678;52.130;5.584;2023-07-24T09:09:36;21.30;99.90
11963;DHT22;62678;52.130;5.584;2023-07-24T09:12:06;21.10;99.90
11963;DHT22;62678;52.130;5.584;2023-07-24T09:14:34;21.10;99.90
11963;DHT22;62678;52.130;5.584;2023-07-24T09:17:05;21.00;99.90
11963;DHT22;62678;52.130;5.584;2023-07-24T09:19:34;21.20;99.90
11963;DHT22;62678;52.130;5.584;2023-07-24T09:22:08;21.40;99.90
11963;DHT22;62678;52.130;5.584;2023-07-24T09:24:37;21.40;99.90
11963;DHT22;62678;52.130;5.584;2023-07-24T09:27:07;21.40;99.90
11963;DHT22;62678;52.130;5.584;2023-07-24T09:29:35;22.00;99.90
11963;DHT22;62678;52.130;5.584;2023-07-24T09:32:03;22.20;99.90
11963;DHT22;62678;52.130;5.584;2023-07-24T09:34:32;22.40;99.90
11963;DHT22;62678;52.130;5.584;2023-07-24T09:36:59;22.30;99.90
11963;DHT22;62678;52.130;5.584;2023-07-24T09:39:27;22.50;99.90
11963;DHT22;62678;52.130;5.584;2023-07-24T09:42:03;22.40;99.90
11963;DHT22;62678;52.130;5.584;2023-07-24T09:44:32;22.00;99.90
11963;DHT22;62678;52.130;5.584;2023-07-24T09:46:59;21.90;99.90
11963;DHT22;62678;52.130;5.584;2023-07-24T09:49:28;21.50;99.90
11963;DHT22;62678;52.130;5.584;2023-07-24T09:51:59;21.50;99.90
11963;DHT22;62678;52.130;5.584;2023-07-24T09:54:33;21.40;99.90
11963;DHT22;62678;52.130;5.584;2023-07-24T09:57:07;21.20;99.90
11963;DHT22;62678;52.130;5.584;2023-07-24T09:59:37;21.50;99.90
11963;DHT22;62678;52.130;5.584;2023-07-24T10:02:08;21.90;99.90
11963;DHT22;62678;52.130;5.584;2023-07-24T10:04:38;22.40;99.90
11963;DHT22;62678;52.130;5.584;2023-07-24T10:07:07;22.40;99.90
11963;DHT22;62678;52.130;5.584;2023-07-24T10:09:36;22.40;99.90
11963;DHT22;62678;52.130;5.584;2023-07-24T10:12:05;22.20;99.90
11963;DHT22;62678;52.130;5.584;2023-07-24T10:14:33;22.10;99.90
11963;DHT22;62678;52.130;5.584;2023-07-24T10:17:04;21.80;99.90
11963;DHT22;62678;52.130;5.584;2023-07-24T10:19:36;21.80;99.90
11963;DHT22;62678;52.130;5.584;2023-07-24T10:22:05;22.00;99.90
11963;DHT22;62678;52.130;5.584;2023-07-24T10:24:33;21.80;99.90
11963;DHT22;62678;52.130;5.584;2023-07-24T10:27:03;22.20;99.90
11963;DHT22;62678;52.130;5.584;2023-07-24T10:29:35;22.20;99.90
11963;DHT22;62678;52.130;5.584;2023-07-24T10:32:15;22.10;99.90
11963;DHT22;62678;52.130;5.584;2023-07-24T10:34:43;21.70;99.90
11963;DHT22;62678;52.130;5.584;2023-07-24T10:37:10;21.80;99.90
11963;DHT22;62678;52.130;5.584;2023-07-24T10:39:39;22.00;99.90
11963;DHT22;62678;52.130;5.584;2023-07-24T10:42:08;21.90;99.90
11963;DHT22;62678;52.130;5.584;2023-07-24T10:44:36;21.90;99.90
11963;DHT22;62678;52.130;5.584;2023-07-24T10:47:05;21.90;99.90
11963;DHT22;62678;52.130;5.584;2023-07-24T10:49:34;21.80;99.90
11963;DHT22;62678;52.130;5.584;2023-07-24T10:52:11;21.60;99.90
11963;DHT22;62678;52.130;5.584;2023-07-24T10:54:39;21.60;99.90
11963;DHT22;62678;52.130;5.584;2023-07-24T10:57:07;21.60;99.90
11963;DHT22;62678;52.130;5.584;2023-07-24T10:59:37;22.00;99.90
11963;DHT22;62678;52.130;5.584;2023-07-24T11:02:05;22.20;99.90
11963;DHT22;62678;52.130;5.584;2023-07-24T11:04:33;22.00;99.90
11963;DHT22;62678;52.130;5.584;2023-07-24T11:07:01;22.20;99.90
11963;DHT22;62678;52.130;5.584;2023-07-24T11:09:36;22.30;99.90
11963;DHT22;62678;52.130;5.584;2023-07-24T11:12:13;22.20;99.90
11963;DHT22;62678;52.130;5.584;2023-07-24T11:14:51;22.10;99.90
11963;DHT22;62678;52.130;5.584;2023-07-24T11:17:20;22.00;99.90
11963;DHT22;62678;52.130;5.584;2023-07-24T11:19:47;21.80;99.90
11963;DHT22;62678;52.130;5.584;2023-07-24T11:22:14;21.60;99.90
11963;DHT22;62678;52.130;5.584;2023-07-24T11:24:45;22.00;99.90
11963;DHT22;62678;52.130;5.584;2023-07-24T11:27:14;22.40;99.90
11963;DHT22;62678;52.130;5.584;2023-07-24T11:29:46;22.50;99.90
11963;DHT22;62678;52.130;5.584;2023-07-24T11:32:18;22.60;99.90
11963;DHT22;62678;52.130;5.584;2023-07-24T11:34:46;22.70;99.90
11963;DHT22;62678;52.130;5.584;2023-07-24T11:37:14;22.90;99.90
11963;DHT22;62678;52.130;5.584;2023-07-24T11:39:43;23.00;99.90
11963;DHT22;62678;52.130;5.584;2023-07-24T11:42:21;22.80;99.90
11963;DHT22;62678;52.130;5.584;2023-07-24T11:44:50;22.80;99.90
11963;DHT22;62678;52.130;5.584;2023-07-24T11:47:18;23.30;99.90
11963;DHT22;62678;52.130;5.584;2023-07-24T11:49:56;23.80;99.90
11963;DHT22;62678;52.130;5.584;2023-07-24T11:52:23;23.60;99.90
11963;DHT22;62678;52.130;5.584;2023-07-24T11:54:58;23.20;99.90
11963;DHT22;62678;52.130;5.584;2023-07-24T11:57:27;23.10;99.90
11963;DHT22;62678;52.130;5.584;2023-07-24T11:59:55;23.50;99.90
11963;DHT22;62678;52.130;5.584;2023-07-24T12:02:25;24.10;99.90
11963;DHT22;62678;52.130;5.584;2023-07-24T12:04:56;23.90;99.90
11963;DHT22;62678;52.130;5.584;2023-07-24T12:07:30;23.90;99.90
11963;DHT22;62678;52.130;5.584;2023-07-24T12:09:59;23.50;99.90
11963;DHT22;62678;52.130;5.584;2023-07-24T12:12:37;23.40;99.90
11963;DHT22;62678;52.130;5.584;2023-07-24T12:15:05;23.10;99.90
11963;DHT22;62678;52.130;5.584;2023-07-24T12:17:32;22.90;99.90
11963;DHT22;62678;52.130;5.584;2023-07-24T12:20:00;22.30;99.90
11963;DHT22;62678;52.130;5.584;2023-07-24T12:22:27;22.20;99.90
11963;DHT22;62678;52.130;5.584;2023-07-24T12:24:54;21.70;99.90
11963;DHT22;62678;52.130;5.584;2023-07-24T12:27:23;21.60;99.90
11963;DHT22;62678;52.130;5.584;2023-07-24T12:29:50;21.80;99.90
11963;DHT22;62678;52.130;5.584;2023-07-24T12:32:17;21.80;99.90
11963;DHT22;62678;52.130;5.584;2023-07-24T12:34:46;21.90;99.90
11963;DHT22;62678;52.130;5.584;2023-07-24T12:37:13;22.10;99.90
11963;DHT22;62678;52.130;5.584;2023-07-24T12:39:40;22.00;99.90
11963;DHT22;62678;52.130;5.584;2023-07-24T12:42:07;22.40;99.90
11963;DHT22;62678;52.130;5.584;2023-07-24T12:44:36;23.30;99.90
11963;DHT22;62678;52.130;5.584;2023-07-24T12:47:04;23.50;2.20
11963;DHT22;62678;52.130;5.584;2023-07-24T12:49:31;23.50;33.60
11963;DHT22;62678;52.130;5.584;2023-07-24T12:51:59;23.60;1.00
11963;DHT22;62678;52.130;5.584;2023-07-24T12:54:26;23.20;1.00
11963;DHT22;62678;52.130;5.584;2023-07-24T12:56:54;23.20;99.90
11963;DHT22;62678;52.130;5.584;2023-07-24T12:59:21;23.30;1.00
11963;DHT22;62678;52.130;5.584;2023-07-24T13:01:50;23.50;1.00
11963;DHT22;62678;52.130;5.584;2023-07-24T13:04:19;23.20;1.00
11963;DHT22;62678;52.130;5.584;2023-07-24T13:06:47;22.90;29.50
11963;DHT22;62678;52.130;5.584;2023-07-24T13:09:14;22.80;99.90
11963;DHT22;62678;52.130;5.584;2023-07-24T13:11:41;23.20;10.70
11963;DHT22;62678;52.130;5.584;2023-07-24T13:14:09;22.90;99.90
11963;DHT22;62678;52.130;5.584;2023-07-24T13:16:36;23.20;99.90
11963;DHT22;62678;52.130;5.584;2023-07-24T13:19:05;23.00;1.00
11963;DHT22;62678;52.130;5.584;2023-07-24T13:21:32;23.10;1.00
11963;DHT22;62678;52.130;5.584;2023-07-24T13:23:59;23.00;1.00
11963;DHT22;62678;52.130;5.584;2023-07-24T13:26:26;22.80;9.30
11963;DHT22;62678;52.130;5.584;2023-07-24T13:28:54;22.70;90.30
11963;DHT22;62678;52.130;5.584;2023-07-24T13:31:21;22.40;99.90
11963;DHT22;62678;52.130;5.584;2023-07-24T13:33:49;21.90;99.90
11963;DHT22;62678;52.130;5.584;2023-07-24T13:36:18;21.70;99.90
11963;DHT22;62678;52.130;5.584;2023-07-24T13:38:45;21.40;99.90
11963;DHT22;62678;52.130;5.584;2023-07-24T13:41:13;21.10;99.90
11963;DHT22;62678;52.130;5.584;2023-07-24T13:43:41;21.00;99.90
11963;DHT22;62678;52.130;5.584;2023-07-24T13:46:08;20.60;99.90
11963;DHT22;62678;52.130;5.584;2023-07-24T13:48:35;20.20;99.90
11963;DHT22;62678;52.130;5.584;2023-07-24T13:51:03;19.80;99.90
11963;DHT22;62678;52.130;5.584;2023-07-24T13:53:32;19.70;99.90
11963;DHT22;62678;52.130;5.584;2023-07-24T13:55:59;19.70;99.90
11963;DHT22;62678;52.130;5.584;2023-07-24T13:58:27;19.70;99.90
11963;DHT22;62678;52.130;5.584;2023-07-24T14:00:54;19.50;99.90
11963;DHT22;62678;52.130;5.584;2023-07-24T14:03:22;19.40;99.90
11963;DHT22;62678;52.130;5.584;2023-07-24T14:05:51;19.50;99.90
11963;DHT22;62678;52.130;5.584;2023-07-24T14:08:19;19.50;99.90
11963;DHT22;62678;52.130;5.584;2023-07-24T14:10:48;19.50;99.90
11963;DHT22;62678;52.130;5.584;2023-07-24T14:13:15;19.50;99.90
11963;DHT22;62678;52.130;5.584;2023-07-24T14:15:43;19.60;99.90
11963;DHT22;62678;52.130;5.584;2023-07-24T14:18:10;19.80;99.90
11963;DHT22;62678;52.130;5.584;2023-07-24T14:20:37;20.00;99.90
11963;DHT22;62678;52.130;5.584;2023-07-24T14:23:06;20.00;99.90
11963;DHT22;62678;52.130;5.584;2023-07-24T14:25:34;19.70;99.90
11963;DHT22;62678;52.130;5.584;2023-07-24T14:28:03;19.60;99.90
11963;DHT22;62678;52.130;5.584;2023-07-24T14:30:31;19.80;99.90
11963;DHT22;62678;52.130;5.584;2023-07-24T14:32:58;19.80;99.90
11963;DHT22;62678;52.130;5.584;2023-07-24T14:35:25;20.00;99.90
11963;DHT22;62678;52.130;5.584;2023-07-24T14:37:53;19.90;99.90
11963;DHT22;62678;52.130;5.584;2023-07-24T14:40:20;19.90;99.90
11963;DHT22;62678;52.130;5.584;2023-07-24T14:42:47;20.00;99.90
11963;DHT22;62678;52.130;5.584;2023-07-24T14:45:16;20.30;99.90
11963;DHT22;62678;52.130;5.584;2023-07-24T14:47:43;20.50;99.90
11963;DHT22;62678;52.130;5.584;2023-07-24T14:50:10;20.60;99.90
11963;DHT22;62678;52.130;5.584;2023-07-24T14:52:38;20.50;99.90
11963;DHT22;62678;52.130;5.584;2023-07-24T14:55:06;20.30;99.90
11963;DHT22;62678;52.130;5.584;2023-07-24T14:57:33;20.10;99.90
11963;DHT22;62678;52.130;5.584;2023-07-24T15:00:00;20.00;99.90
11963;DHT22;62678;52.130;5.584;2023-07-24T15:02:30;19.90;99.90
11963;DHT22;62678;52.130;5.584;2023-07-24T15:04:58;19.90;99.90
11963;DHT22;62678;52.130;5.584;2023-07-24T15:07:26;19.80;99.90
11963;DHT22;62678;52.130;5.584;2023-07-24T15:09:53;19.70;99.90
11963;DHT22;62678;52.130;5.584;2023-07-24T15:12:21;19.60;99.90
11963;DHT22;62678;52.130;5.584;2023-07-24T15:14:48;19.60;99.90
11963;DHT22;62678;52.130;5.584;2023-07-24T15:17:15;19.60;99.90
11963;DHT22;62678;52.130;5.584;2023-07-24T15:19:45;19.90;99.90
11963;DHT22;62678;52.130;5.584;2023-07-24T15:22:13;19.80;99.90
11963;DHT22;62678;52.130;5.584;2023-07-24T15:24:40;19.80;99.90
11963;DHT22;62678;52.130;5.584;2023-07-24T15:27:08;19.70;99.90
11963;DHT22;62678;52.130;5.584;2023-07-24T15:29:35;19.80;99.90
11963;DHT22;62678;52.130;5.584;2023-07-24T15:32:04;19.90;99.90
11963;DHT22;62678;52.130;5.584;2023-07-24T15:34:32;20.60;99.90
11963;DHT22;62678;52.130;5.584;2023-07-24T15:37:01;21.70;99.90